sensor_id;sensor_type;location;lat;lon;timestamp;temperature;humidity
70550;DHT22;58101;48.658;2.328;2023-11-19T00:00:25;14.10;99.90
70550;DHT22;58101;48.658;2.328;2023-11-19T00:02:51;14.10;99.90
70550;DHT22;58101;48.658;2.328;2023-11-19T00:05:16;14.10;99.90
70550;DHT22;58101;48.658;2.328;2023-11-19T00:07:42;14.10;99.90
70550;DHT22;58101;48.658;2.328;2023-11-19T00:10:13;14.10;99.90
70550;DHT22;58101;48.658;2.328;2023-11-19T00:12:41;14.10;99.90
70550;DHT22;58101;48.658;2.328;2023-11-19T00:15:07;14.10;99.90
70550;DHT22;58101;48.658;2.328;2023-11-19T00:17:40;14.10;99.90
70550;DHT22;58101;48.658;2.328;2023-11-19T00:20:13;14.10;99.90
70550;DHT22;58101;48.658;2.328;2023-11-19T00:22:39;14.20;99.90
70550;DHT22;58101;48.658;2.328;2023-11-19T00:25:05;14.20;99.90
70550;DHT22;58101;48.658;2.328;2023-11-19T00:27:32;14.20;99.90
70550;DHT22;58101;48.658;2.328;2023-11-19T00:29:57;14.20;99.90
70550;DHT22;58101;48.658;2.328;2023-11-19T00:32:23;14.20;99.90
70550;DHT22;58101;48.658;2.328;2023-11-19T00:34:49;14.20;99.90
70550;DHT22;58101;48.658;2.328;2023-11-19T00:37:15;14.20;99.90
70550;DHT22;58101;48.658;2.328;2023-11-19T00:39:42;14.20;99.90
70550;DHT22;58101;48.658;2.328;2023-11-19T00:42:09;14.20;99.90
70550;DHT22;58101;48.658;2.328;2023-11-19T00:44:35;14.20;99.90
70550;DHT22;58101;48.658;2.328;2023-11-19T00:47:01;14.20;99.90
70550;DHT22;58101;48.658;2.328;2023-11-19T00:49:27;14.20;99.90
70550;DHT22;58101;48.658;2.328;2023-11-19T00:51:53;14.20;99.90
70550;DHT22;58101;48.658;2.328;2023-11-19T00:54:18;14.20;99.90
70550;DHT22;58101;48.658;2.328;2023-11-19T00:56:44;14.20;99.90
70550;DHT22;58101;48.658;2.328;2023-11-19T00:59:10;14.20;99.90
70550;DHT22;58101;48.658;2.328;2023-11-19T01:01:36;14.20;99.90
70550;DHT22;58101;48.658;2.328;2023-11-19T01:04:01;14.20;99.90
70550;DHT22;58101;48.658;2.328;2023-11-19T01:06:31;14.20;99.90
70550;DHT22;58101;48.658;2.328;2023-11-19T01:08:57;14.30;99.90
70550;DHT22;58101;48.658;2.328;2023-11-19T01:11:23;14.20;99.90
70550;DHT22;58101;48.658;2.328;2023-11-19T01:13:49;14.20;99.90
70550;DHT22;58101;48.658;2.328;2023-11-19T01:16:15;14.30;99.90
70550;DHT22;58101;48.658;2.328;2023-11-19T01:18:41;14.20;99.90
70550;DHT22;58101;48.658;2.328;2023-11-19T01:21:07;14.20;99.90
70550;DHT22;58101;48.658;2.328;2023-11-19T01:23:32;14.20;99.90
70550;DHT22;58101;48.658;2.328;2023-11-19T01:25:58;14.30;99.90
70550;DHT22;58101;48.658;2.328;2023-11-19T01:28:24;14.20;99.90
70550;DHT22;58101;48.658;2.328;2023-11-19T01:30:52;14.30;99.90
70550;DHT22;58101;48.658;2.328;2023-11-19T01:33:18;14.10;99.90
70550;DHT22;58101;48.658;2.328;2023-11-19T01:35:44;14.20;99.90
70550;DHT22;58101;48.658;2.328;2023-11-19T01:38:10;14.00;99.90
70550;DHT22;58101;48.658;2.328;2023-11-19T01:40:36;14.00;99.90
70550;DHT22;58101;48.658;2.328;2023-11-19T01:43:03;14.00;99.90
70550;DHT22;58101;48.658;2.328;2023-11-19T01:45:30;14.00;99.90
70550;DHT22;58101;48.658;2.328;2023-11-19T01:47:57;14.00;99.90
70550;DHT22;58101;48.658;2.328;2023-11-19T01:50:23;14.00;99.90
70550;DHT22;58101;48.658;2.328;2023-11-19T01:52:54;14.00;99.90
70550;DHT22;58101;48.658;2.328;2023-11-19T01:55:21;14.00;99.90
70550;DHT22;58101;48.658;2.328;2023-11-19T01:57:48;14.00;99.90
70550;DHT22;58101;48.658;2.328;2023-11-19T02:00:15;13.90;99.90
70550;DHT22;58101;48.658;2.328;2023-11-19T02:02:41;13.90;99.90
70550;DHT22;58101;48.658;2.328;2023-11-19T02:05:09;14.00;99.90
70550;DHT22;58101;48.658;2.328;2023-11-19T02:07:34;14.10;99.90
70550;DHT22;58101;48.658;2.328;2023-11-19T02:10:00;14.00;99.90
70550;DHT22;58101;48.658;2.328;2023-11-19T02:12:26;14.00;99.90
70550;DHT22;58101;48.658;2.328;2023-11-19T02:14:57;14.10;99.90
70550;DHT22;58101;48.658;2.328;2023-11-19T02:17:30;14.10;99.90
70550;DHT22;58101;48.658;2.328;2023-11-19T02:19:57;14.10;99.90
70550;DHT22;58101;48.658;2.328;2023-11-19T02:22:24;14.10;99.90
70550;DHT22;58101;48.658;2.328;2023-11-19T02:24:54;14.10;99.90
70550;DHT22;58101;48.658;2.328;2023-11-19T02:27:58;14.10;99.90
70550;DHT22;58101;48.658;2.328;2023-11-19T02:30:25;14.10;99.90
70550;DHT22;58101;48.658;2.328;2023-11-19T02:32:55;13.90;99.90
70550;DHT22;58101;48.658;2.328;2023-11-19T02:35:23;14.10;99.90
70550;DHT22;58101;48.658;2.328;2023-11-19T02:37:49;14.00;99.90
70550;DHT22;58101;48.658;2.328;2023-11-19T02:40:15;14.20;99.90
70550;DHT22;58101;48.658;2.328;2023-11-19T02:42:40;14.10;99.90
70550;DHT22;58101;48.658;2.328;2023-11-19T02:45:07;14.00;99.90
70550;DHT22;58101;48.658;2.328;2023-11-19T02:47:33;14.00;99.90
70550;DHT22;58101;48.658;2.328;2023-11-19T02:49:59;14.00;99.90
70550;DHT22;58101;48.658;2.328;2023-11-19T02:52:25;13.90;99.90
70550;DHT22;58101;48.658;2.328;2023-11-19T02:54:51;13.90;99.90
70550;DHT22;58101;48.658;2.328;2023-11-19T02:57:17;13.90;99.90
70550;DHT22;58101;48.658;2.328;2023-11-19T02:59:45;14.00;99.90
70550;DHT22;58101;48.658;2.328;2023-11-19T03:02:11;13.90;99.90
70550;DHT22;58101;48.658;2.328;2023-11-19T03:04:41;13.90;99.90
70550;DHT22;58101;48.658;2.328;2023-11-19T03:07:08;13.80;99.90
70550;DHT22;58101;48.658;2.328;2023-11-19T03:09:34;13.90;99.90
70550;DHT22;58101;48.658;2.328;2023-11-19T03:12:01;13.90;99.90
70550;DHT22;58101;48.658;2.328;2023-11-19T03:14:26;13.90;99.90
70550;DHT22;58101;48.658;2.328;2023-11-19T03:16:52;13.80;99.90
70550;DHT22;58101;48.658;2.328;2023-11-19T03:19:17;13.80;99.90
70550;DHT22;58101;48.658;2.328;2023-11-19T03:21:43;13.70;99.90
70550;DHT22;58101;48.658;2.328;2023-11-19T03:24:10;13.70;99.90
70550;DHT22;58101;48.658;2.328;2023-11-19T03:26:35;13.70;99.90
70550;DHT22;58101;48.658;2.328;2023-11-19T03:29:02;13.70;99.90
70550;DHT22;58101;48.658;2.328;2023-11-19T03:31:28;13.60;99.90
70550;DHT22;58101;48.658;2.328;2023-11-19T03:33:54;13.70;99.90
70550;DHT22;58101;48.658;2.328;2023-11-19T03:36:19;13.60;99.90
70550;DHT22;58101;48.658;2.328;2023-11-19T03:38:45;13.60;99.90
70550;DHT22;58101;48.658;2.328;2023-11-19T03:41:14;13.60;99.90
70550;DHT22;58101;48.658;2.328;2023-11-19T03:43:40;13.50;99.90
70550;DHT22;58101;48.658;2.328;2023-11-19T03:46:19;13.50;99.90
70550;DHT22;58101;48.658;2.328;2023-11-19T03:48:46;13.50;99.90
70550;DHT22;58101;48.658;2.328;2023-11-19T03:51:12;13.40;99.90
70550;DHT22;58101;48.658;2.328;2023-11-19T03:53:44;13.50;99.90
70550;DHT22;58101;48.658;2.328;2023-11-19T03:56:10;13.60;99.90
70550;DHT22;58101;48.658;2.328;2023-11-19T03:58:37;13.40;99.90
70550;DHT22;58101;48.658;2.328;2023-11-19T04:01:04;13.50;99.90
70550;DHT22;58101;48.658;2.328;2023-11-19T04:03:30;13.40;99.90
70550;DHT22;58101;48.658;2.328;2023-11-19T04:05:55;13.50;99.90
70550;DHT22;58101;48.658;2.328;2023-11-19T04:08:21;13.40;99.90
70550;DHT22;58101;48.658;2.328;2023-11-19T04:10:47;13.30;99.90
70550;DHT22;58101;48.658;2.328;2023-11-19T04:13:13;13.30;99.90
70550;DHT22;58101;48.658;2.328;2023-11-19T04:15:39;13.20;99.90
70550;DHT22;58101;48.658;2.328;2023-11-19T04:18:04;13.30;99.90
70550;DHT22;58101;48.658;2.328;2023-11-19T04:20:30;13.10;99.90
70550;DHT22;58101;48.658;2.328;2023-11-19T04:22:57;13.40;99.90
70550;DHT22;58101;48.658;2.328;2023-11-19T04:25:22;13.20;99.90
70550;DHT22;58101;48.658;2.328;2023-11-19T04:27:49;13.10;99.90
70550;DHT22;58101;48.658;2.328;2023-11-19T04:30:15;13.20;99.90
70550;DHT22;58101;48.658;2.328;2023-11-19T04:32:40;13.20;99.90
70550;DHT22;58101;48.658;2.328;2023-11-19T04:35:06;13.30;99.90
70550;DHT22;58101;48.658;2.328;2023-11-19T04:37:32;13.10;99.90
70550;DHT22;58101;48.658;2.328;2023-11-19T04:39:58;13.10;99.90
70550;DHT22;58101;48.658;2.328;2023-11-19T04:42:25;13.10;99.90
70550;DHT22;58101;48.658;2.328;2023-11-19T04:44:51;13.10;99.90
70550;DHT22;58101;48.658;2.328;2023-11-19T04:47:16;13.10;99.90
70550;DHT22;58101;48.658;2.328;2023-11-19T04:49:42;13.00;99.90
70550;DHT22;58101;48.658;2.328;2023-11-19T04:52:11;13.20;99.90
70550;DHT22;58101;48.658;2.328;2023-11-19T04:54:41;13.00;99.90
70550;DHT22;58101;48.658;2.328;2023-11-19T04:57:07;13.10;99.90
70550;DHT22;58101;48.658;2.328;2023-11-19T04:59:35;13.00;99.90
70550;DHT22;58101;48.658;2.328;2023-11-19T05:02:00;13.00;99.90
70550;DHT22;58101;48.658;2.328;2023-11-19T05:04:27;12.90;99.90
70550;DHT22;58101;48.658;2.328;2023-11-19T05:06:53;12.90;99.90
70550;DHT22;58101;48.658;2.328;2023-11-19T05:09:19;12.90;99.90
70550;DHT22;58101;48.658;2.328;2023-11-19T05:11:44;12.90;99.90
70550;DHT22;58101;48.658;2.328;2023-11-19T05:14:10;13.00;99.90
70550;DHT22;58101;48.658;2.328;2023-11-19T05:16:36;12.90;99.90
70550;DHT22;58101;48.658;2.328;2023-11-19T05:19:01;12.90;99.90
70550;DHT22;58101;48.658;2.328;2023-11-19T05:21:27;12.90;99.90
70550;DHT22;58101;48.658;2.328;2023-11-19T05:23:52;12.90;99.90
70550;DHT22;58101;48.658;2.328;2023-11-19T05:26:20;13.00;99.90
70550;DHT22;58101;48.658;2.328;2023-11-19T05:28:46;12.90;99.90
70550;DHT22;58101;48.658;2.328;2023-11-19T05:31:12;12.90;99.90
70550;DHT22;58101;48.658;2.328;2023-11-19T05:33:38;12.80;99.90
70550;DHT22;58101;48.658;2.328;2023-11-19T05:36:04;12.90;99.90
70550;DHT22;58101;48.658;2.328;2023-11-19T05:38:30;12.80;99.90
70550;DHT22;58101;48.658;2.328;2023-11-19T05:40:56;12.80;99.90
70550;DHT22;58101;48.658;2.328;2023-11-19T05:43:22;12.80;99.90
70550;DHT22;58101;48.658;2.328;2023-11-19T05:45:48;12.80;99.90
70550;DHT22;58101;48.658;2.328;2023-11-19T05:48:13;12.70;99.90
70550;DHT22;58101;48.658;2.328;2023-11-19T05:50:39;12.70;99.90
70550;DHT22;58101;48.658;2.328;2023-11-19T05:53:05;12.70;99.90
70550;DHT22;58101;48.658;2.328;2023-11-19T05:55:34;12.90;99.90
70550;DHT22;58101;48.658;2.328;2023-11-19T05:58:01;12.70;99.90
70550;DHT22;58101;48.658;2.328;2023-11-19T06:00:27;12.80;99.90
70550;DHT22;58101;48.658;2.328;2023-11-19T06:02:52;12.80;99.90
70550;DHT22;58101;48.658;2.328;2023-11-19T06:05:18;12.80;99.90
70550;DHT22;58101;48.658;2.328;2023-11-19T06:07:44;12.80;99.90
70550;DHT22;58101;48.658;2.328;2023-11-19T06:10:10;12.80;99.90
70550;DHT22;58101;48.658;2.328;2023-11-19T06:12:36;12.80;99.90
70550;DHT22;58101;48.658;2.328;2023-11-19T06:15:05;12.70;99.90
70550;DHT22;58101;48.658;2.328;2023-11-19T06:17:31;12.70;99.90
70550;DHT22;58101;48.658;2.328;2023-11-19T06:19:57;12.60;99.90
70550;DHT22;58101;48.658;2.328;2023-11-19T06:22:22;12.60;99.90
70550;DHT22;58101;48.658;2.328;2023-11-19T06:24:48;12.60;99.90
70550;DHT22;58101;48.658;2.328;2023-11-19T06:27:13;12.40;99.90
70550;DHT22;58101;48.658;2.328;2023-11-19T06:29:39;12.60;99.90
70550;DHT22;58101;48.658;2.328;2023-11-19T06:32:06;12.60;99.90
70550;DHT22;58101;48.658;2.328;2023-11-19T06:34:33;12.60;99.90
70550;DHT22;58101;48.658;2.328;2023-11-19T06:36:59;12.80;99.90
70550;DHT22;58101;48.658;2.328;2023-11-19T06:39:25;12.50;99.90
70550;DHT22;58101;48.658;2.328;2023-11-19T06:41:52;12.60;99.90
70550;DHT22;58101;48.658;2.328;2023-11-19T06:44:17;12.50;99.90
70550;DHT22;58101;48.658;2.328;2023-11-19T06:46:43;12.40;99.90
70550;DHT22;58101;48.658;2.328;2023-11-19T06:49:09;12.60;99.90
70550;DHT22;58101;48.658;2.328;2023-11-19T06:51:34;12.60;99.90
70550;DHT22;58101;48.658;2.328;2023-11-19T06:54:00;12.50;99.90
70550;DHT22;58101;48.658;2.328;2023-11-19T06:56:26;12.40;99.90
70550;DHT22;58101;48.658;2.328;2023-11-19T06:58:52;12.40;99.90
70550;DHT22;58101;48.658;2.328;2023-11-19T07:01:19;12.50;99.90
70550;DHT22;58101;48.658;2.328;2023-11-19T07:03:48;12.40;99.90
70550;DHT22;58101;48.658;2.328;2023-11-19T07:06:14;12.60;99.90
70550;DHT22;58101;48.658;2.328;2023-11-19T07:08:41;12.40;99.90
70550;DHT22;58101;48.658;2.328;2023-11-19T07:11:07;12.40;99.90
70550;DHT22;58101;48.658;2.328;2023-11-19T07:13:35;12.30;99.90
70550;DHT22;58101;48.658;2.328;2023-11-19T07:16:01;12.30;99.90
70550;DHT22;58101;48.658;2.328;2023-11-19T07:18:26;12.40;99.90
70550;DHT22;58101;48.658;2.328;2023-11-19T07:20:52;12.30;99.90
70550;DHT22;58101;48.658;2.328;2023-11-19T07:23:18;12.30;99.90
70550;DHT22;58101;48.658;2.328;2023-11-19T07:25:44;12.20;99.90
70550;DHT22;58101;48.658;2.328;2023-11-19T07:28:12;12.30;99.90
70550;DHT22;58101;48.658;2.328;2023-11-19T07:30:38;12.20;99.90
70550;DHT22;58101;48.658;2.328;2023-11-19T07:33:04;12.30;99.90
70550;DHT22;58101;48.658;2.328;2023-11-19T07:35:31;12.30;99.90
70550;DHT22;58101;48.658;2.328;2023-11-19T07:37:57;12.30;99.90
70550;DHT22;58101;48.658;2.328;2023-11-19T07:40:23;12.30;99.90
70550;DHT22;58101;48.658;2.328;2023-11-19T07:42:49;12.30;99.90
70550;DHT22;58101;48.658;2.328;2023-11-19T07:45:15;12.30;99.90
70550;DHT22;58101;48.658;2.328;2023-11-19T07:47:42;12.30;99.90
70550;DHT22;58101;48.658;2.328;2023-11-19T07:50:10;12.40;99.90
70550;DHT22;58101;48.658;2.328;2023-11-19T07:52:36;12.30;99.90
70550;DHT22;58101;48.658;2.328;2023-11-19T07:55:02;12.30;99.90
70550;DHT22;58101;48.658;2.328;2023-11-19T07:57:28;12.40;99.90
70550;DHT22;58101;48.658;2.328;2023-11-19T07:59:56;12.40;99.90
70550;DHT22;58101;48.658;2.328;2023-11-19T08:02:22;12.50;99.90
70550;DHT22;58101;48.658;2.328;2023-11-19T08:04:51;12.50;99.90
70550;DHT22;58101;48.658;2.328;2023-11-19T08:07:20;12.50;99.90
70550;DHT22;58101;48.658;2.328;2023-11-19T08:09:46;12.70;99.90
70550;DHT22;58101;48.658;2.328;2023-11-19T08:12:11;12.70;99.90
70550;DHT22;58101;48.658;2.328;2023-11-19T08:14:39;12.80;99.90
70550;DHT22;58101;48.658;2.328;2023-11-19T08:17:05;13.00;99.90
70550;DHT22;58101;48.658;2.328;2023-11-19T08:19:30;13.20;99.90
70550;DHT22;58101;48.658;2.328;2023-11-19T08:21:56;13.40;99.90
70550;DHT22;58101;48.658;2.328;2023-11-19T08:24:22;13.30;99.90
70550;DHT22;58101;48.658;2.328;2023-11-19T08:26:48;13.30;99.90
70550;DHT22;58101;48.658;2.328;2023-11-19T08:29:13;13.90;99.90
70550;DHT22;58101;48.658;2.328;2023-11-19T08:31:39;14.20;99.90
70550;DHT22;58101;48.658;2.328;2023-11-19T08:34:05;14.60;99.90
70550;DHT22;58101;48.658;2.328;2023-11-19T08:36:34;15.20;99.90
70550;DHT22;58101;48.658;2.328;2023-11-19T08:39:00;16.00;99.90
70550;DHT22;58101;48.658;2.328;2023-11-19T08:41:26;16.60;99.90
70550;DHT22;58101;48.658;2.328;2023-11-19T08:43:51;17.20;99.90
70550;DHT22;58101;48.658;2.328;2023-11-19T08:46:17;17.70;99.90
70550;DHT22;58101;48.658;2.328;2023-11-19T08:48:42;17.90;99.90
70550;DHT22;58101;48.658;2.328;2023-11-19T08:51:08;17.60;99.90
70550;DHT22;58101;48.658;2.328;2023-11-19T08:53:34;17.60;99.90
70550;DHT22;58101;48.658;2.328;2023-11-19T08:55:59;17.90;99.90
70550;DHT22;58101;48.658;2.328;2023-11-19T08:58:26;18.20;99.90
70550;DHT22;58101;48.658;2.328;2023-11-19T09:00:51;19.00;99.90
70550;DHT22;58101;48.658;2.328;2023-11-19T09:03:17;19.80;96.80
70550;DHT22;58101;48.658;2.328;2023-11-19T09:05:43;19.50;94.70
70550;DHT22;58101;48.658;2.328;2023-11-19T09:08:08;19.40;97.10
70550;DHT22;58101;48.658;2.328;2023-11-19T09:10:34;19.60;96.80
70550;DHT22;58101;48.658;2.328;2023-11-19T09:12:59;20.50;96.20
70550;DHT22;58101;48.658;2.328;2023-11-19T09:15:25;20.80;91.50
70550;DHT22;58101;48.658;2.328;2023-11-19T09:17:50;20.70;84.70
70550;DHT22;58101;48.658;2.328;2023-11-19T09:20:16;19.50;88.90
70550;DHT22;58101;48.658;2.328;2023-11-19T09:22:42;18.30;95.50
70550;DHT22;58101;48.658;2.328;2023-11-19T09:25:08;17.50;99.90
70550;DHT22;58101;48.658;2.328;2023-11-19T09:27:33;16.90;99.90
70550;DHT22;58101;48.658;2.328;2023-11-19T09:29:59;16.60;99.90
70550;DHT22;58101;48.658;2.328;2023-11-19T09:32:25;16.70;99.90
70550;DHT22;58101;48.658;2.328;2023-11-19T09:34:51;16.60;99.90
70550;DHT22;58101;48.658;2.328;2023-11-19T09:37:16;16.30;99.90
70550;DHT22;58101;48.658;2.328;2023-11-19T09:39:42;15.80;99.90
70550;DHT22;58101;48.658;2.328;2023-11-19T09:42:11;15.60;99.90
70550;DHT22;58101;48.658;2.328;2023-11-19T09:44:38;15.90;99.90
70550;DHT22;58101;48.658;2.328;2023-11-19T09:47:05;15.70;99.90
70550;DHT22;58101;48.658;2.328;2023-11-19T09:49:33;15.70;99.90
70550;DHT22;58101;48.658;2.328;2023-11-19T09:51:59;15.50;99.90
70550;DHT22;58101;48.658;2.328;2023-11-19T09:54:25;15.60;99.90
70550;DHT22;58101;48.658;2.328;2023-11-19T09:56:51;15.90;99.90
70550;DHT22;58101;48.658;2.328;2023-11-19T09:59:17;16.50;99.90
70550;DHT22;58101;48.658;2.328;2023-11-19T10:01:45;16.80;99.90
70550;DHT22;58101;48.658;2.328;2023-11-19T10:04:14;16.80;99.90
70550;DHT22;58101;48.658;2.328;2023-11-19T10:06:41;16.40;99.90
70550;DHT22;58101;48.658;2.328;2023-11-19T10:09:07;16.30;99.90
70550;DHT22;58101;48.658;2.328;2023-11-19T10:11:33;16.20;99.90
70550;DHT22;58101;48.658;2.328;2023-11-19T10:13:59;16.30;99.90
70550;DHT22;58101;48.658;2.328;2023-11-19T10:16:29;16.10;99.90
70550;DHT22;58101;48.658;2.328;2023-11-19T10:18:58;16.40;99.90
70550;DHT22;58101;48.658;2.328;2023-11-19T10:21:24;16.70;99.90
70550;DHT22;58101;48.658;2.328;2023-11-19T10:23:54;16.80;99.90
70550;DHT22;58101;48.658;2.328;2023-11-19T10:26:22;17.00;99.90
70550;DHT22;58101;48.658;2.328;2023-11-19T10:28:48;17.00;99.90
70550;DHT22;58101;48.658;2.328;2023-11-19T10:31:20;16.70;99.90
70550;DHT22;58101;48.658;2.328;2023-11-19T10:33:50;16.90;99.90
70550;DHT22;58101;48.658;2.328;2023-11-19T10:36:16;16.60;99.90
70550;DHT22;58101;48.658;2.328;2023-11-19T10:38:55;15.90;99.90
70550;DHT22;58101;48.658;2.328;2023-11-19T10:41:31;15.80;99.90
70550;DHT22;58101;48.658;2.328;2023-11-19T10:43:57;15.80;99.90
70550;DHT22;58101;48.658;2.328;2023-11-19T10:46:39;15.60;99.90
70550;DHT22;58101;48.658;2.328;2023-11-19T10:49:06;15.50;99.90
70550;DHT22;58101;48.658;2.328;2023-11-19T10:51:32;15.60;99.90
70550;DHT22;58101;48.658;2.328;2023-11-19T10:54:05;15.20;99.90
70550;DHT22;58101;48.658;2.328;2023-11-19T10:56:32;15.40;99.90
70550;DHT22;58101;48.658;2.328;2023-11-19T10:58:59;16.20;99.90
70550;DHT22;58101;48.658;2.328;2023-11-19T11:01:29;16.80;99.90
70550;DHT22;58101;48.658;2.328;2023-11-19T11:03:59;17.80;99.90
70550;DHT22;58101;48.658;2.328;2023-11-19T11:06:27;18.40;96.00
70550;DHT22;58101;48.658;2.328;2023-11-19T11:08:53;19.30;93.60
70550;DHT22;58101;48.658;2.328;2023-11-19T11:11:19;20.40;87.70
70550;DHT22;58101;48.658;2.328;2023-11-19T11:13:50;20.90;78.70
70550;DHT22;58101;48.658;2.328;2023-11-19T11:16:18;20.80;77.00
70550;DHT22;58101;48.658;2.328;2023-11-19T11:18:45;20.80;82.10
70550;DHT22;58101;48.658;2.328;2023-11-19T11:21:15;21.00;73.80
70550;DHT22;58101;48.658;2.328;2023-11-19T11:24:03;21.80;76.40
70550;DHT22;58101;48.658;2.328;2023-11-19T11:32:45;20.30;74.70
70550;DHT22;58101;48.658;2.328;2023-11-19T11:37:55;21.00;77.60
70550;DHT22;58101;48.658;2.328;2023-11-19T11:40:24;20.40;74.30
70550;DHT22;58101;48.658;2.328;2023-11-19T11:42:52;20.40;79.30
70550;DHT22;58101;48.658;2.328;2023-11-19T11:45:18;20.80;77.50
70550;DHT22;58101;48.658;2.328;2023-11-19T11:50:20;20.30;74.20
70550;DHT22;58101;48.658;2.328;2023-11-19T11:55:27;18.30;84.30
70550;DHT22;58101;48.658;2.328;2023-11-19T11:57:53;17.80;89.70
70550;DHT22;58101;48.658;2.328;2023-11-19T12:00:40;17.40;89.00
70550;DHT22;58101;48.658;2.328;2023-11-19T12:03:07;17.00;92.20
70550;DHT22;58101;48.658;2.328;2023-11-19T12:05:38;16.60;92.30
70550;DHT22;58101;48.658;2.328;2023-11-19T12:08:05;16.20;93.30
70550;DHT22;58101;48.658;2.328;2023-11-19T12:10:46;16.00;95.50
70550;DHT22;58101;48.658;2.328;2023-11-19T12:13:13;15.70;95.80
70550;DHT22;58101;48.658;2.328;2023-11-19T12:18:27;15.60;98.70
70550;DHT22;58101;48.658;2.328;2023-11-19T12:20:56;15.80;97.70
70550;DHT22;58101;48.658;2.328;2023-11-19T12:23:22;15.60;98.70
70550;DHT22;58101;48.658;2.328;2023-11-19T12:25:48;15.50;99.90
70550;DHT22;58101;48.658;2.328;2023-11-19T12:28:15;15.30;99.90
70550;DHT22;58101;48.658;2.328;2023-11-19T12:30:45;15.60;99.90
70550;DHT22;58101;48.658;2.328;2023-11-19T12:33:12;15.60;97.00
70550;DHT22;58101;48.658;2.328;2023-11-19T12:35:39;15.90;96.80
70550;DHT22;58101;48.658;2.328;2023-11-19T12:38:05;15.90;94.00
70550;DHT22;58101;48.658;2.328;2023-11-19T12:40:31;15.60;95.70
70550;DHT22;58101;48.658;2.328;2023-11-19T12:42:57;15.60;96.70
70550;DHT22;58101;48.658;2.328;2023-11-19T12:45:24;15.50;96.10
70550;DHT22;58101;48.658;2.328;2023-11-19T12:47:50;15.30;96.70
70550;DHT22;58101;48.658;2.328;2023-11-19T12:50:18;15.10;96.90
70550;DHT22;58101;48.658;2.328;2023-11-19T12:52:55;15.10;98.50
70550;DHT22;58101;48.658;2.328;2023-11-19T12:55:29;15.00;97.40
70550;DHT22;58101;48.658;2.328;2023-11-19T12:57:56;15.30;97.30
70550;DHT22;58101;48.658;2.328;2023-11-19T13:00:23;15.30;96.70
70550;DHT22;58101;48.658;2.328;2023-11-19T13:02:51;15.30;94.80
70550;DHT22;58101;48.658;2.328;2023-11-19T13:05:31;15.10;95.90
70550;DHT22;58101;48.658;2.328;2023-11-19T13:08:08;14.90;97.40
70550;DHT22;58101;48.658;2.328;2023-11-19T13:13:19;14.90;99.10
70550;DHT22;58101;48.658;2.328;2023-11-19T13:15:45;15.10;99.90
70550;DHT22;58101;48.658;2.328;2023-11-19T13:18:11;15.40;97.50
70550;DHT22;58101;48.658;2.328;2023-11-19T13:20:37;15.70;96.70
70550;DHT22;58101;48.658;2.328;2023-11-19T13:23:05;15.80;95.90
70550;DHT22;58101;48.658;2.328;2023-11-19T13:25:31;15.70;95.90
70550;DHT22;58101;48.658;2.328;2023-11-19T13:27:57;15.60;96.90
70550;DHT22;58101;48.658;2.328;2023-11-19T13:30:24;15.60;97.80
70550;DHT22;58101;48.658;2.328;2023-11-19T13:32:50;15.30;99.00
70550;DHT22;58101;48.658;2.328;2023-11-19T13:35:17;15.30;99.50
70550;DHT22;58101;48.658;2.328;2023-11-19T13:37:43;15.10;99.90
70550;DHT22;58101;48.658;2.328;2023-11-19T13:40:09;15.00;99.90
70550;DHT22;58101;48.658;2.328;2023-11-19T13:42:38;14.90;99.90
70550;DHT22;58101;48.658;2.328;2023-11-19T13:45:11;14.80;99.90
70550;DHT22;58101;48.658;2.328;2023-11-19T13:47:38;14.70;99.90
70550;DHT22;58101;48.658;2.328;2023-11-19T13:50:10;14.60;99.90
70550;DHT22;58101;48.658;2.328;2023-11-19T13:52:37;14.60;99.90
70550;DHT22;58101;48.658;2.328;2023-11-19T13:55:09;14.60;99.90
70550;DHT22;58101;48.658;2.328;2023-11-19T13:57:35;14.70;99.90
70550;DHT22;58101;48.658;2.328;2023-11-19T14:00:02;14.70;99.90
70550;DHT22;58101;48.658;2.328;2023-11-19T14:02:33;14.70;99.90
70550;DHT22;58101;48.658;2.328;2023-11-19T14:04:58;14.60;99.90
70550;DHT22;58101;48.658;2.328;2023-11-19T14:07:24;14.60;99.90
70550;DHT22;58101;48.658;2.328;2023-11-19T14:09:49;14.60;99.90
70550;DHT22;58101;48.658;2.328;2023-11-19T14:12:15;14.60;99.90
70550;DHT22;58101;48.658;2.328;2023-11-19T14:14:41;14.50;99.90
70550;DHT22;58101;48.658;2.328;2023-11-19T14:17:07;14.50;99.90
70550;DHT22;58101;48.658;2.328;2023-11-19T14:19:33;14.40;99.90
70550;DHT22;58101;48.658;2.328;2023-11-19T14:21:59;14.40;99.90
70550;DHT22;58101;48.658;2.328;2023-11-19T14:24:25;14.40;99.90
70550;DHT22;58101;48.658;2.328;2023-11-19T14:26:51;14.50;99.90
70550;DHT22;58101;48.658;2.328;2023-11-19T14:29:17;14.30;99.90
70550;DHT22;58101;48.658;2.328;2023-11-19T14:31:43;14.30;99.90
70550;DHT22;58101;48.658;2.328;2023-11-19T14:34:08;14.30;99.90
70550;DHT22;58101;48.658;2.328;2023-11-19T14:36:34;14.30;99.90
70550;DHT22;58101;48.658;2.328;2023-11-19T14:39:00;14.30;99.90
70550;DHT22;58101;48.658;2.328;2023-11-19T14:41:26;14.30;99.90
70550;DHT22;58101;48.658;2.328;2023-11-19T14:43:51;14.30;99.90
70550;DHT22;58101;48.658;2.328;2023-11-19T14:46:18;14.30;99.90
70550;DHT22;58101;48.658;2.328;2023-11-19T14:48:43;14.30;99.90
70550;DHT22;58101;48.658;2.328;2023-11-19T14:51:09;14.10;99.90
70550;DHT22;58101;48.658;2.328;2023-11-19T14:53:34;14.10;99.90
70550;DHT22;58101;48.658;2.328;2023-11-19T14:56:00;14.10;99.90
70550;DHT22;58101;48.658;2.328;2023-11-19T14:58:26;14.10;99.90
70550;DHT22;58101;48.658;2.328;2023-11-19T15:00:52;14.10;99.90
70550;DHT22;58101;48.658;2.328;2023-11-19T15:03:18;14.10;99.90
70550;DHT22;58101;48.658;2.328;2023-11-19T15:05:45;14.10;99.90
70550;DHT22;58101;48.658;2.328;2023-11-19T15:08:11;14.10;99.90
70550;DHT22;58101;48.658;2.328;2023-11-19T15:10:37;14.10;99.90
70550;DHT22;58101;48.658;2.328;2023-11-19T15:13:03;14.10;99.90
70550;DHT22;58101;48.658;2.328;2023-11-19T15:15:29;14.20;99.90
70550;DHT22;58101;48.658;2.328;2023-11-19T15:17:55;14.10;99.90
70550;DHT22;58101;48.658;2.328;2023-11-19T15:20:20;14.00;99.90
70550;DHT22;58101;48.658;2.328;2023-11-19T15:22:46;13.90;99.90
70550;DHT22;58101;48.658;2.328;2023-11-19T15:25:12;13.90;99.90
70550;DHT22;58101;48.658;2.328;2023-11-19T15:27:38;13.80;99.90
70550;DHT22;58101;48.658;2.328;2023-11-19T15:30:05;13.70;99.90
70550;DHT22;58101;48.658;2.328;2023-11-19T15:32:30;13.80;99.90
70550;DHT22;58101;48.658;2.328;2023-11-19T15:34:58;13.70;99.90
70550;DHT22;58101;48.658;2.328;2023-11-19T15:37:23;13.70;99.90
70550;DHT22;58101;48.658;2.328;2023-11-19T15:39:49;13.60;99.90
70550;DHT22;58101;48.658;2.328;2023-11-19T15:42:17;13.60;99.90
70550;DHT22;58101;48.658;2.328;2023-11-19T15:44:42;13.50;99.90
70550;DHT22;58101;48.658;2.328;2023-11-19T15:47:09;13.70;99.90